createdAt,value
2023-05-01T00:00:07.556Z,14.90
2023-05-01T00:00:19.432Z,14.80
2023-05-01T00:00:31.208Z,14.80
2023-05-01T00:00:43.460Z,14.80
2023-05-01T00:00:55.341Z,14.80
2023-05-01T00:01:07.117Z,14.80
2023-05-01T00:01:18.916Z,14.80
2023-05-01T00:01:30.703Z,14.80
2023-05-01T00:01:42.417Z,14.80
2023-05-01T00:01:54.217Z,14.80
2023-05-01T00:02:06.080Z,14.80
2023-05-01T00:02:17.956Z,14.80
2023-05-01T00:02:30.772Z,14.80
2023-05-01T00:02:42.709Z,14.80
2023-05-01T00:02:54.776Z,14.80
2023-05-01T00:03:06.893Z,14.80
2023-05-01T00:03:19.414Z,14.80
2023-05-01T00:03:31.339Z,14.80
2023-05-01T00:03:43.440Z,14.80
2023-05-01T00:03:56.317Z,14.80
2023-05-01T00:04:08.608Z,14.80
2023-05-01T00:04:22.531Z,14.80
2023-05-01T00:04:34.943Z,14.80
2023-05-01T00:04:47.138Z,14.80
2023-05-01T00:04:59.470Z,14.80
2023-05-01T00:05:11.850Z,14.80
2023-05-01T00:05:23.677Z,14.80
2023-05-01T00:05:35.449Z,14.80
2023-05-01T00:05:47.789Z,14.80
2023-05-01T00:06:01.056Z,14.80
2023-05-01T00:06:12.873Z,14.80
2023-05-01T00:06:24.771Z,14.80
2023-05-01T00:06:36.613Z,14.70
2023-05-01T00:06:48.480Z,14.80
2023-05-01T00:07:00.302Z,14.70
2023-05-01T00:07:12.107Z,14.70
2023-05-01T00:07:25.377Z,14.70
2023-05-01T00:07:37.185Z,14.80
2023-05-01T00:07:48.953Z,14.70
2023-05-01T00:08:01.154Z,14.70
2023-05-01T00:08:12.916Z,14.70
2023-05-01T00:08:24.659Z,14.70
2023-05-01T00:08:36.487Z,14.70
2023-05-01T00:08:48.293Z,14.70
2023-05-01T00:09:00.057Z,14.70
2023-05-01T00:09:11.946Z,14.70
2023-05-01T00:09:23.702Z,14.70
2023-05-01T00:09:35.689Z,14.80
2023-05-01T00:09:47.949Z,14.70
2023-05-01T00:10:00.032Z,14.80
2023-05-01T00:10:11.940Z,14.80
2023-05-01T00:10:23.725Z,14.80
2023-05-01T00:10:36.794Z,14.80
2023-05-01T00:10:48.562Z,14.80
2023-05-01T00:11:09.807Z,14.80
2023-05-01T00:11:21.618Z,14.80
2023-05-01T00:11:33.425Z,14.70
2023-05-01T00:11:46.388Z,14.70
2023-05-01T00:11:58.164Z,14.80
2023-05-01T00:12:10.982Z,14.70
2023-05-01T00:12:22.782Z,14.70
2023-05-01T00:12:34.623Z,14.70
2023-05-01T00:12:46.467Z,14.80
2023-05-01T00:12:58.351Z,14.70
2023-05-01T00:13:10.359Z,14.80
2023-05-01T00:13:24.330Z,14.80
2023-05-01T00:13:36.277Z,14.80
2023-05-01T00:13:48.159Z,14.80
2023-05-01T00:13:59.904Z,14.80
2023-05-01T00:14:11.921Z,14.80
2023-05-01T00:14:23.712Z,14.80
2023-05-01T00:14:35.520Z,14.80
2023-05-01T00:14:47.382Z,14.80
2023-05-01T00:14:59.188Z,14.80
2023-05-01T00:15:11.293Z,14.80
2023-05-01T00:15:23.237Z,14.80
2023-05-01T00:15:35.085Z,14.80
2023-05-01T00:15:46.876Z,14.80
2023-05-01T00:15:58.845Z,14.80
2023-05-01T00:16:11.325Z,14.80
2023-05-01T00:16:23.322Z,14.80
2023-05-01T00:16:36.316Z,14.80
2023-05-01T00:16:48.315Z,14.80
2023-05-01T00:17:00.381Z,14.80
2023-05-01T00:17:12.162Z,14.80
2023-05-01T00:17:24.098Z,14.80
2023-05-01T00:17:35.966Z,14.80
2023-05-01T00:17:48.454Z,14.80
2023-05-01T00:18:00.315Z,14.80
2023-05-01T00:18:12.220Z,14.80
2023-05-01T00:18:23.995Z,14.80
2023-05-01T00:18:35.875Z,14.80
2023-05-01T00:18:47.658Z,14.80
2023-05-01T00:18:59.405Z,14.80
2023-05-01T00:19:12.787Z,14.80
2023-05-01T00:19:24.586Z,14.80
2023-05-01T00:19:36.368Z,14.80
2023-05-01T00:19:54.451Z,14.80
2023-05-01T00:20:07.353Z,14.80
2023-05-01T00:20:19.233Z,14.80
2023-05-01T00:20:31.487Z,14.80
2023-05-01T00:20:43.409Z,14.80
2023-05-01T00:20:55.260Z,14.80
2023-05-01T00:21:07.042Z,14.80
2023-05-01T00:21:18.858Z,14.80
2023-05-01T00:21:31.048Z,14.80
2023-05-01T00:21:42.969Z,14.80
2023-05-01T00:21:54.856Z,14.80
2023-05-01T00:22:06.688Z,14.80
2023-05-01T00:22:18.457Z,14.80
2023-05-01T00:22:30.541Z,14.80
2023-05-01T00:22:42.461Z,14.80
2023-05-01T00:22:54.540Z,14.80
2023-05-01T00:23:06.961Z,14.80
2023-05-01T00:23:18.742Z,14.80
2023-05-01T00:23:30.522Z,14.80
2023-05-01T00:23:42.302Z,14.80
2023-05-01T00:23:54.307Z,14.80
2023-05-01T00:24:06.133Z,14.80
2023-05-01T00:24:17.988Z,14.80
2023-05-01T00:24:29.738Z,14.80
2023-05-01T00:24:41.542Z,14.80
2023-05-01T00:24:53.493Z,14.80
2023-05-01T00:25:05.815Z,14.80
2023-05-01T00:25:17.582Z,14.80
2023-05-01T00:25:29.408Z,14.80
2023-05-01T00:25:41.353Z,14.80
2023-05-01T00:25:53.232Z,14.70
2023-05-01T00:26:04.937Z,14.70
2023-05-01T00:26:16.769Z,14.70
2023-05-01T00:26:31.239Z,14.70
2023-05-01T00:26:43.068Z,14.70
2023-05-01T00:26:54.851Z,14.70
2023-05-01T00:27:06.743Z,14.70
2023-05-01T00:27:18.553Z,14.70
2023-05-01T00:27:30.490Z,14.70
2023-05-01T00:27:42.257Z,14.70
2023-05-01T00:27:54.091Z,14.70
2023-05-01T00:28:06.486Z,14.70
2023-05-01T00:28:19.099Z,14.70
2023-05-01T00:28:30.918Z,14.70
2023-05-01T00:28:42.739Z,14.70
2023-05-01T00:28:54.574Z,14.70
2023-05-01T00:29:06.313Z,14.70
2023-05-01T00:29:18.208Z,14.70
2023-05-01T00:29:30.038Z,14.70
2023-05-01T00:29:42.264Z,14.70
2023-05-01T00:29:54.232Z,14.70
2023-05-01T00:30:07.497Z,14.70
2023-05-01T00:30:19.252Z,14.70
2023-05-01T00:30:32.934Z,14.70
2023-05-01T00:30:45.533Z,14.70
2023-05-01T00:30:57.746Z,14.70
2023-05-01T00:31:09.503Z,14.70
2023-05-01T00:31:21.374Z,14.70
2023-05-01T00:31:33.166Z,14.70
2023-05-01T00:31:45.735Z,14.70
2023-05-01T00:31:57.856Z,14.70
2023-05-01T00:32:10.169Z,14.70
2023-05-01T00:32:22.219Z,14.70
2023-05-01T00:32:34.598Z,14.70
2023-05-01T00:32:46.522Z,14.70
2023-05-01T00:32:59.527Z,14.70
2023-05-01T00:33:11.837Z,14.70
2023-05-01T00:33:23.613Z,14.70
2023-05-01T00:33:35.398Z,14.70
2023-05-01T00:33:47.121Z,14.70
2023-05-01T00:33:59.408Z,14.70
2023-05-01T00:34:11.694Z,14.70
2023-05-01T00:34:25.205Z,14.70
2023-05-01T00:34:37.005Z,14.70
2023-05-01T00:34:49.303Z,14.70
2023-05-01T00:35:01.121Z,14.70
2023-05-01T00:35:13.554Z,14.70
2023-05-01T00:35:25.479Z,14.70
2023-05-01T00:35:37.350Z,14.70
2023-05-01T00:35:49.269Z,14.70
2023-05-01T00:36:03.842Z,14.70
2023-05-01T00:36:15.671Z,14.70
2023-05-01T00:36:27.527Z,14.70
2023-05-01T00:36:39.346Z,14.70
2023-05-01T00:36:51.531Z,14.70
2023-05-01T00:37:03.600Z,14.70
2023-05-01T00:37:15.540Z,14.70
2023-05-01T00:37:27.468Z,14.70
2023-05-01T00:37:39.512Z,14.70
2023-05-01T00:37:51.261Z,14.70
2023-05-01T00:38:03.138Z,14.70
2023-05-01T00:38:14.955Z,14.70
2023-05-01T00:38:26.700Z,14.70
2023-05-01T00:38:38.548Z,14.70
2023-05-01T00:38:50.449Z,14.70
2023-05-01T00:39:02.268Z,14.70
2023-05-01T00:39:14.044Z,14.70
2023-05-01T00:39:25.855Z,14.70
2023-05-01T00:39:37.748Z,14.70
2023-05-01T00:39:49.677Z,14.70
2023-05-01T00:40:01.746Z,14.70
2023-05-01T00:40:13.619Z,14.70
2023-05-01T00:40:25.474Z,14.70
2023-05-01T00:40:46.593Z,14.70
2023-05-01T00:40:58.411Z,14.70
2023-05-01T00:41:10.221Z,14.70
2023-05-01T00:41:22.164Z,14.70
2023-05-01T00:41:34.883Z,14.70
2023-05-01T00:41:46.635Z,14.70
2023-05-01T00:41:58.449Z,14.70
2023-05-01T00:42:10.203Z,14.70
2023-05-01T00:42:21.947Z,14.70
2023-05-01T00:42:37.324Z,14.70
2023-05-01T00:42:49.398Z,14.70
2023-05-01T00:43:01.200Z,14.70
2023-05-01T00:43:13.061Z,14.70
2023-05-01T00:43:24.869Z,14.70
2023-05-01T00:43:36.995Z,14.70
2023-05-01T00:43:49.248Z,14.70
2023-05-01T00:44:01.175Z,14.70
2023-05-01T00:44:13.030Z,14.70
2023-05-01T00:44:24.962Z,14.70
2023-05-01T00:44:36.954Z,14.70
2023-05-01T00:44:48.802Z,14.60
2023-05-01T00:45:00.629Z,14.60
2023-05-01T00:45:12.636Z,14.60
2023-05-01T00:45:24.436Z,14.60
2023-05-01T00:45:36.541Z,14.60
2023-05-01T00:45:48.487Z,14.60
2023-05-01T00:46:00.683Z,14.60
2023-05-01T00:46:12.664Z,14.60
2023-05-01T00:46:24.892Z,14.60
2023-05-01T00:46:36.777Z,14.60
2023-05-01T00:46:48.982Z,14.60
2023-05-01T00:47:02.368Z,14.60
2023-05-01T00:47:14.707Z,14.60
2023-05-01T00:47:26.950Z,14.60
2023-05-01T00:47:38.895Z,14.60
2023-05-01T00:47:50.821Z,14.60
2023-05-01T00:48:03.138Z,14.60
2023-05-01T00:48:16.459Z,14.60
2023-05-01T00:48:28.222Z,14.60
2023-05-01T00:48:40.073Z,14.60
2023-05-01T00:48:52.449Z,14.60
2023-05-01T00:49:04.228Z,14.60
2023-05-01T00:49:17.498Z,14.60
2023-05-01T00:49:29.275Z,14.60
2023-05-01T00:49:44.055Z,14.60
2023-05-01T00:49:56.053Z,14.60
2023-05-01T00:50:08.358Z,14.60
2023-05-01T00:50:20.218Z,14.60
2023-05-01T00:50:32.263Z,14.60
2023-05-01T00:50:44.409Z,14.60
2023-05-01T00:50:56.325Z,14.60
2023-05-01T00:51:08.202Z,14.60
2023-05-01T00:51:20.370Z,14.60
2023-05-01T00:51:32.141Z,14.60
2023-05-01T00:51:44.058Z,14.60
2023-05-01T00:51:56.070Z,14.60
2023-05-01T00:52:09.881Z,14.60
2023-05-01T00:52:21.722Z,14.60
2023-05-01T00:52:33.538Z,14.60
2023-05-01T00:52:46.115Z,14.60
2023-05-01T00:52:58.041Z,14.60
2023-05-01T00:53:09.869Z,14.60
2023-05-01T00:53:22.236Z,14.60
2023-05-01T00:53:34.306Z,14.60
2023-05-01T00:53:46.200Z,14.60
2023-05-01T00:53:59.742Z,14.60
2023-05-01T00:54:11.516Z,14.60
2023-05-01T00:54:25.220Z,14.60
2023-05-01T00:54:37.646Z,14.60
2023-05-01T00:54:52.161Z,14.60
2023-05-01T00:55:05.474Z,14.60
2023-05-01T00:55:17.502Z,14.60
2023-05-01T00:55:29.930Z,14.60
2023-05-01T00:55:42.164Z,14.60
2023-05-01T00:55:56.465Z,14.60
2023-05-01T00:56:08.716Z,14.60
2023-05-01T00:56:21.575Z,14.60
2023-05-01T00:56:33.486Z,14.60
2023-05-01T00:56:46.860Z,14.60
2023-05-01T00:56:58.636Z,14.60
2023-05-01T00:57:10.700Z,14.60
2023-05-01T00:57:22.499Z,14.60
2023-05-01T00:57:34.345Z,14.60
2023-05-01T00:57:46.213Z,14.60
2023-05-01T00:57:58.506Z,14.60
2023-05-01T00:58:11.166Z,14.60
2023-05-01T00:58:22.988Z,14.60
2023-05-01T00:58:34.789Z,14.60
2023-05-01T00:58:47.863Z,14.60
2023-05-01T00:58:59.676Z,14.60
2023-05-01T00:59:11.517Z,14.60
2023-05-01T00:59:23.942Z,14.60
2023-05-01T00:59:35.747Z,14.60
2023-05-01T00:59:48.110Z,14.60
2023-05-01T01:00:00.074Z,14.60
2023-05-01T01:00:12.723Z,14.60
2023-05-01T01:00:24.907Z,14.60
2023-05-01T01:00:37.111Z,14.60
2023-05-01T01:00:49.680Z,14.60
2023-05-01T01:01:01.835Z,14.60
2023-05-01T01:01:13.895Z,14.60
2023-05-01T01:01:25.857Z,14.60
2023-05-01T01:01:37.924Z,14.60
2023-05-01T01:01:50.863Z,14.60
2023-05-01T01:02:02.968Z,14.60
2023-05-01T01:02:15.109Z,14.60
2023-05-01T01:02:27.348Z,14.60
2023-05-01T01:02:39.285Z,14.60
2023-05-01T01:02:52.129Z,14.60
2023-05-01T01:03:04.852Z,14.60
2023-05-01T01:03:16.656Z,14.50
2023-05-01T01:03:28.437Z,14.50
2023-05-01T01:03:40.330Z,14.60
2023-05-01T01:03:52.182Z,14.60
2023-05-01T01:04:04.162Z,14.50
2023-05-01T01:04:16.149Z,14.50
2023-05-01T01:04:31.586Z,14.50
2023-05-01T01:04:45.233Z,14.50
2023-05-01T01:04:57.032Z,14.50
2023-05-01T01:05:08.916Z,14.50
2023-05-01T01:05:20.896Z,14.50
2023-05-01T01:05:32.792Z,14.50
2023-05-01T01:06:13.717Z,14.50
2023-05-01T01:06:50.209Z,14.50
2023-05-01T01:07:22.361Z,14.50
2023-05-01T01:07:40.003Z,14.50
2023-05-01T01:07:55.793Z,14.50
2023-05-01T01:08:35.082Z,14.50
2023-05-01T01:08:53.459Z,14.50
2023-05-01T01:09:33.960Z,14.50
2023-05-01T01:10:16.344Z,14.50
2023-05-01T01:10:55.463Z,14.50
2023-05-01T01:11:16.024Z,14.50
2023-05-01T01:11:33.669Z,14.50
2023-05-01T01:12:06.208Z,14.50
2023-05-01T01:13:07.510Z,14.50
2023-05-01T01:13:24.651Z,14.50
2023-05-01T01:13:46.471Z,14.50
2023-05-01T01:14:07.293Z,14.50
2023-05-01T01:14:27.085Z,14.50
2023-05-01T01:15:32.623Z,14.60
2023-05-01T01:15:46.131Z,14.60
2023-05-01T01:16:19.556Z,14.60
2023-05-01T01:16:53.885Z,14.60
2023-05-01T01:17:11.846Z,14.60
2023-05-01T01:17:30.058Z,14.60
2023-05-01T01:18:05.404Z,14.60
2023-05-01T01:18:28.950Z,14.60
2023-05-01T01:18:44.103Z,14.60
2023-05-01T01:18:58.369Z,14.50
2023-05-01T01:19:17.155Z,14.50
2023-05-01T01:19:37.901Z,14.50
2023-05-01T01:20:08.809Z,14.50
2023-05-01T01:20:38.277Z,14.50
2023-05-01T01:21:06.969Z,14.50
2023-05-01T01:22:12.369Z,14.50
2023-05-01T01:22:24.318Z,14.50
2023-05-01T01:22:36.105Z,14.50
2023-05-01T01:22:53.180Z,14.50
2023-05-01T01:23:37.154Z,14.50
2023-05-01T01:24:09.730Z,14.50
2023-05-01T01:24:48.696Z,14.60
2023-05-01T01:25:41.953Z,14.60
2023-05-01T01:26:03.646Z,14.50
2023-05-01T01:26:45.625Z,14.60
2023-05-01T01:27:16.215Z,14.60
2023-05-01T01:27:40.959Z,14.60
2023-05-01T01:28:15.808Z,14.60
2023-05-01T01:28:52.526Z,14.60
2023-05-01T01:29:10.333Z,14.50
2023-05-01T01:29:51.589Z,14.50
2023-05-01T01:30:11.336Z,14.50
2023-05-01T01:30:47.961Z,14.50
2023-05-01T01:31:22.309Z,14.40
2023-05-01T01:32:26.881Z,14.40
2023-05-01T01:32:38.780Z,14.40
2023-05-01T01:47:17.382Z,14.40
2023-05-01T01:47:34.243Z,14.40
2023-05-01T01:47:46.265Z,14.50
2023-05-01T01:47:58.195Z,14.40
2023-05-01T01:48:12.147Z,14.50
2023-05-01T01:48:26.599Z,14.40
2023-05-01T01:48:42.495Z,14.40
2023-05-01T01:48:54.269Z,14.40
2023-05-01T01:49:12.433Z,14.40
2023-05-01T01:49:25.324Z,14.50
2023-05-01T01:49:38.625Z,14.50
2023-05-01T01:49:52.370Z,14.50
2023-05-01T01:50:05.512Z,14.50
2023-05-01T01:50:17.537Z,14.50
2023-05-01T01:50:29.309Z,14.40
2023-05-01T01:50:41.151Z,14.50
2023-05-01T01:50:53.117Z,14.40
2023-05-01T01:51:10.742Z,14.40
2023-05-01T01:51:22.909Z,14.50
2023-05-01T01:51:34.747Z,14.40
2023-05-01T01:51:46.596Z,14.40
2023-05-01T01:51:58.418Z,14.40
2023-05-01T01:52:10.460Z,14.40
2023-05-01T01:52:22.355Z,14.40
2023-05-01T01:52:35.570Z,14.40
2023-05-01T01:52:48.497Z,14.40
2023-05-01T01:53:00.465Z,14.50
2023-05-01T01:53:15.231Z,14.40
2023-05-01T01:53:28.394Z,14.40
2023-05-01T01:53:40.544Z,14.40
2023-05-01T01:53:54.132Z,14.40
2023-05-01T01:54:06.116Z,14.40
2023-05-01T01:54:19.978Z,14.40
2023-05-01T01:54:35.710Z,14.40
2023-05-01T01:54:56.048Z,14.40
2023-05-01T01:55:09.826Z,14.40
2023-05-01T01:55:22.856Z,14.40
2023-05-01T01:55:35.123Z,14.40
2023-05-01T01:55:47.003Z,14.40
2023-05-01T01:55:58.861Z,14.40
2023-05-01T01:56:10.819Z,14.40
2023-05-01T01:56:22.999Z,14.40
2023-05-01T01:56:34.746Z,14.40
2023-05-01T01:56:46.689Z,14.40
2023-05-01T01:56:59.794Z,14.40
2023-05-01T01:57:12.066Z,14.40
2023-05-01T01:57:23.878Z,14.40
2023-05-01T01:57:36.919Z,14.40
2023-05-01T01:57:48.730Z,14.40
2023-05-01T01:58:00.554Z,14.40
2023-05-01T01:58:12.469Z,14.40
2023-05-01T01:58:26.255Z,14.40
2023-05-01T01:58:38.856Z,14.40
2023-05-01T01:58:50.880Z,14.40
2023-05-01T01:59:02.724Z,14.40
2023-05-01T01:59:14.647Z,14.40
2023-05-01T01:59:26.515Z,14.40
2023-05-01T01:59:38.387Z,14.40
2023-05-01T01:59:50.360Z,14.40
2023-05-01T02:00:02.233Z,14.40
2023-05-01T02:00:14.174Z,14.40
2023-05-01T02:00:26.056Z,14.40
2023-05-01T02:00:38.064Z,14.40
2023-05-01T02:00:49.902Z,14.30
2023-05-01T02:01:01.728Z,14.30
2023-05-01T02:01:14.274Z,14.40
2023-05-01T02:01:26.105Z,14.40
2023-05-01T02:01:39.775Z,14.30
2023-05-01T02:01:52.117Z,14.30
2023-05-01T02:02:04.283Z,14.40
2023-05-01T02:02:16.495Z,14.30
2023-05-01T02:02:28.466Z,14.40
2023-05-01T02:02:41.047Z,14.40
2023-05-01T02:02:53.320Z,14.30
2023-05-01T02:03:06.786Z,14.30
2023-05-01T02:03:18.682Z,14.30
2023-05-01T02:03:31.067Z,14.30
2023-05-01T02:03:44.179Z,14.30
2023-05-01T02:03:56.245Z,14.30
2023-05-01T02:04:08.215Z,14.30
2023-05-01T02:04:20.171Z,14.30
2023-05-01T02:04:31.980Z,14.30
2023-05-01T02:04:43.752Z,14.30
2023-05-01T02:04:57.235Z,14.30
2023-05-01T02:05:09.333Z,14.30
2023-05-01T02:05:21.172Z,14.40
2023-05-01T02:05:33.227Z,14.40
2023-05-01T02:05:45.098Z,14.30
2023-05-01T02:05:57.030Z,14.40
2023-05-01T02:06:08.889Z,14.30
2023-05-01T02:06:20.762Z,14.40
2023-05-01T02:06:32.887Z,14.30
2023-05-01T02:06:44.806Z,14.30
2023-05-01T02:06:57.854Z,14.30
2023-05-01T02:07:09.800Z,14.30
2023-05-01T02:07:21.712Z,14.30
2023-05-01T02:07:33.521Z,14.40
2023-05-01T02:07:47.422Z,14.30
2023-05-01T02:07:59.180Z,14.30
2023-05-01T02:08:11.393Z,14.30
2023-05-01T02:08:23.649Z,14.30
2023-05-01T02:08:35.600Z,14.30
2023-05-01T02:08:47.349Z,14.30
2023-05-01T02:08:59.136Z,14.30
2023-05-01T02:09:10.999Z,14.30
2023-05-01T02:09:23.149Z,14.30
2023-05-01T02:09:34.903Z,14.30
2023-05-01T02:09:46.783Z,14.30
2023-05-01T02:09:58.818Z,14.30
2023-05-01T02:10:11.690Z,14.30
2023-05-01T02:10:23.579Z,14.30
2023-05-01T02:10:35.379Z,14.30
2023-05-01T02:10:47.378Z,14.30
2023-05-01T02:11:02.101Z,14.30
2023-05-01T02:11:14.556Z,14.30
2023-05-01T02:11:26.425Z,14.30
2023-05-01T02:11:38.220Z,14.30
2023-05-01T02:11:50.104Z,14.30
2023-05-01T02:12:03.008Z,14.30
2023-05-01T02:12:14.780Z,14.30
2023-05-01T02:12:26.961Z,14.30
2023-05-01T02:12:38.709Z,14.30
2023-05-01T02:12:51.620Z,14.30
2023-05-01T02:13:03.473Z,14.30
2023-05-01T02:13:15.444Z,14.30
2023-05-01T02:13:27.570Z,14.40
2023-05-01T02:13:39.376Z,14.30
2023-05-01T02:13:51.891Z,14.30
2023-05-01T02:14:03.724Z,14.30
2023-05-01T02:14:15.619Z,14.30
2023-05-01T02:14:27.602Z,14.30
2023-05-01T02:14:39.334Z,14.30
2023-05-01T02:14:51.553Z,14.30
2023-05-01T02:15:03.688Z,14.30
2023-05-01T02:15:19.116Z,14.30
2023-05-01T02:15:30.942Z,14.40
2023-05-01T02:15:42.767Z,14.30
2023-05-01T02:15:56.422Z,14.30
2023-05-01T02:16:08.208Z,14.30
2023-05-01T02:16:21.054Z,14.30
2023-05-01T02:16:33.899Z,14.30
2023-05-01T02:16:45.834Z,14.30
2023-05-01T02:16:58.864Z,14.30
2023-05-01T02:17:10.634Z,14.30
2023-05-01T02:17:22.503Z,14.30
2023-05-01T02:17:35.789Z,14.30
2023-05-01T02:17:47.958Z,14.30
2023-05-01T02:17:59.769Z,14.30
2023-05-01T02:18:11.592Z,14.30
2023-05-01T02:18:23.363Z,14.30
2023-05-01T02:18:35.374Z,14.30
2023-05-01T02:18:47.189Z,14.30
2023-05-01T02:18:59.030Z,14.30
2023-05-01T02:19:10.954Z,14.30
2023-05-01T02:19:22.759Z,14.30
2023-05-01T02:19:34.932Z,14.30
2023-05-01T02:19:46.890Z,14.30
2023-05-01T02:19:58.650Z,14.30
2023-05-01T02:20:12.753Z,14.30
2023-05-01T02:20:24.605Z,14.30
2023-05-01T02:20:36.736Z,14.30
2023-05-01T02:20:48.622Z,14.30
2023-05-01T02:21:00.365Z,14.30
2023-05-01T02:21:12.470Z,14.30
2023-05-01T02:21:24.458Z,14.30
2023-05-01T02:21:36.215Z,14.40
2023-05-01T02:21:48.215Z,14.30
2023-05-01T02:22:00.089Z,14.30
2023-05-01T02:22:11.909Z,14.30
2023-05-01T02:22:23.908Z,14.30
2023-05-01T02:22:35.776Z,14.30
2023-05-01T02:22:47.696Z,14.30
2023-05-01T02:22:59.620Z,14.30
2023-05-01T02:23:11.592Z,14.30
2023-05-01T02:23:24.054Z,14.30
2023-05-01T02:23:35.813Z,14.30
2023-05-01T02:23:48.636Z,14.30
2023-05-01T02:24:03.214Z,14.30
2023-05-01T02:24:15.334Z,14.30
2023-05-01T02:24:27.594Z,14.30
2023-05-01T02:24:39.362Z,14.30
2023-05-01T02:24:52.242Z,14.30
2023-05-01T02:25:04.440Z,14.30
2023-05-01T02:25:16.802Z,14.30
2023-05-01T02:25:29.634Z,14.30
2023-05-01T02:25:41.603Z,14.30
2023-05-01T02:25:53.358Z,14.30
2023-05-01T02:26:05.407Z,14.30
2023-05-01T02:26:17.232Z,14.30
2023-05-01T02:26:29.610Z,14.30
2023-05-01T02:26:46.652Z,14.30
2023-05-01T02:27:09.722Z,14.40
2023-05-01T02:27:31.032Z,14.30
2023-05-01T02:27:48.394Z,14.30
2023-05-01T02:28:01.988Z,14.30
2023-05-01T02:28:14.368Z,14.30
2023-05-01T02:28:27.262Z,14.30
2023-05-01T02:28:41.560Z,14.30
2023-05-01T02:28:53.762Z,14.30
2023-05-01T02:29:07.523Z,14.30
2023-05-01T02:29:19.260Z,14.30
2023-05-01T02:29:31.107Z,14.30
2023-05-01T02:29:43.121Z,14.30
2023-05-01T02:29:55.264Z,14.30
2023-05-01T02:30:08.123Z,14.30
2023-05-01T02:30:20.127Z,14.30
2023-05-01T02:30:32.515Z,14.30
2023-05-01T02:30:45.060Z,14.30
2023-05-01T02:30:57.447Z,14.30
2023-05-01T02:31:09.872Z,14.30
2023-05-01T02:31:23.301Z,14.30
2023-05-01T02:31:35.557Z,14.30
2023-05-01T02:31:47.516Z,14.30
2023-05-01T02:32:00.477Z,14.30
2023-05-01T02:32:12.493Z,14.30
2023-05-01T02:32:24.266Z,14.30
2023-05-01T02:32:36.285Z,14.30
2023-05-01T02:32:48.139Z,14.30
2023-05-01T02:32:59.898Z,14.30
2023-05-01T02:33:11.958Z,14.30
2023-05-01T02:33:24.036Z,14.30
2023-05-01T02:33:35.870Z,14.30
2023-05-01T02:33:47.659Z,14.30
2023-05-01T02:33:59.443Z,14.30
2023-05-01T02:34:11.526Z,14.30
2023-05-01T02:34:23.327Z,14.30
2023-05-01T02:34:35.698Z,14.30
2023-05-01T02:34:47.494Z,14.30
2023-05-01T02:35:00.534Z,14.30
2023-05-01T02:35:12.332Z,14.30
2023-05-01T02:35:24.268Z,14.30
2023-05-01T02:35:47.571Z,14.30
2023-05-01T02:35:59.327Z,14.30
2023-05-01T02:36:13.396Z,14.30
2023-05-01T02:36:25.239Z,14.30
2023-05-01T02:36:37.117Z,14.30
2023-05-01T02:36:49.756Z,14.30
2023-05-01T02:37:02.260Z,14.30
2023-05-01T02:37:14.088Z,14.30
2023-05-01T02:37:25.913Z,14.30
2023-05-01T02:37:38.630Z,14.30
2023-05-01T02:37:51.523Z,14.30
2023-05-01T02:38:03.345Z,14.30
2023-05-01T02:38:15.625Z,14.30
2023-05-01T02:38:27.512Z,14.30
2023-05-01T02:38:39.408Z,14.30
2023-05-01T02:38:51.455Z,14.30
2023-05-01T02:39:03.479Z,14.30
2023-05-01T02:39:15.293Z,14.30
2023-05-01T02:39:27.155Z,14.30
2023-05-01T02:39:39.564Z,14.30
2023-05-01T02:39:51.385Z,14.30
2023-05-01T02:40:03.388Z,14.30
2023-05-01T02:40:15.661Z,14.30
2023-05-01T02:40:27.888Z,14.30
2023-05-01T02:40:39.991Z,14.40
2023-05-01T02:40:52.948Z,14.40
2023-05-01T02:41:04.935Z,14.40
2023-05-01T02:41:16.950Z,14.40
2023-05-01T02:41:28.742Z,14.40
2023-05-01T02:41:40.725Z,14.40
2023-05-01T02:41:52.689Z,14.40
2023-05-01T02:42:04.759Z,14.30
2023-05-01T02:42:17.145Z,14.30
2023-05-01T02:42:28.884Z,14.30
2023-05-01T02:42:42.793Z,14.30
2023-05-01T02:42:54.789Z,14.30
2023-05-01T02:43:09.637Z,14.30
2023-05-01T02:43:21.532Z,14.30
2023-05-01T02:43:33.901Z,14.30
2023-05-01T02:43:45.952Z,14.30
2023-05-01T02:44:01.892Z,14.30
2023-05-01T02:44:13.625Z,14.30
2023-05-01T02:44:25.826Z,14.30
2023-05-01T02:44:40.092Z,14.30
2023-05-01T02:44:57.979Z,14.30
2023-05-01T02:45:10.713Z,14.30
2023-05-01T02:45:23.360Z,14.40
2023-05-01T02:45:36.734Z,14.40
2023-05-01T02:45:48.665Z,14.30
2023-05-01T02:46:00.652Z,14.30
2023-05-01T02:46:12.660Z,14.30
2023-05-01T02:46:24.668Z,14.30
2023-05-01T02:46:36.967Z,14.30
2023-05-01T02:46:49.690Z,14.30
2023-05-01T02:47:01.833Z,14.30
2023-05-01T02:47:16.152Z,14.30
2023-05-01T02:47:29.045Z,14.40
2023-05-01T02:47:40.898Z,14.30
2023-05-01T02:47:55.801Z,14.30
2023-05-01T02:48:08.313Z,14.30
2023-05-01T02:48:25.736Z,14.30
2023-05-01T02:48:38.367Z,14.30
2023-05-01T02:48:50.184Z,14.30
2023-05-01T02:49:02.468Z,14.30
2023-05-01T02:49:14.261Z,14.30
2023-05-01T02:49:26.042Z,14.30
2023-05-01T02:49:37.930Z,14.20
2023-05-01T02:49:49.892Z,14.30
2023-05-01T02:50:01.715Z,14.30
2023-05-01T02:50:13.556Z,14.30
2023-05-01T02:50:25.328Z,14.30
2023-05-01T02:50:37.285Z,14.30
2023-05-01T02:50:49.424Z,14.30
2023-05-01T02:51:01.335Z,14.20
2023-05-01T02:51:13.053Z,14.20
2023-05-01T02:51:24.830Z,14.30
2023-05-01T02:51:36.897Z,14.30
2023-05-01T02:51:48.686Z,14.30
2023-05-01T02:52:01.100Z,14.30
2023-05-01T02:52:12.953Z,14.30
2023-05-01T02:52:24.695Z,14.30
2023-05-01T02:52:36.790Z,14.30
2023-05-01T02:52:48.581Z,14.30
2023-05-01T02:53:00.379Z,14.30
2023-05-01T02:53:12.569Z,14.30
2023-05-01T02:53:24.416Z,14.30
2023-05-01T02:53:36.621Z,14.30
2023-05-01T02:53:48.525Z,14.30
2023-05-01T02:54:00.391Z,14.30
2023-05-01T02:54:12.904Z,14.30
2023-05-01T02:54:24.731Z,14.30
2023-05-01T02:54:36.487Z,14.30
2023-05-01T02:54:48.312Z,14.30
2023-05-01T02:55:00.113Z,14.30
2023-05-01T02:55:12.030Z,14.30
2023-05-01T02:55:23.768Z,14.30
2023-05-01T02:55:35.984Z,14.30
2023-05-01T02:55:48.174Z,14.30
2023-05-01T02:56:00.174Z,14.30
2023-05-01T02:56:12.019Z,14.30
2023-05-01T02:56:24.280Z,14.30
2023-05-01T02:56:36.127Z,14.30
2023-05-01T02:56:47.918Z,14.30
2023-05-01T02:56:59.720Z,14.30
2023-05-01T02:57:12.041Z,14.30
2023-05-01T02:57:23.864Z,14.30
2023-05-01T02:57:35.761Z,14.30
2023-05-01T02:57:47.941Z,14.30
2023-05-01T02:57:59.923Z,14.30
2023-05-01T02:58:18.081Z,14.30
2023-05-01T02:58:31.387Z,14.30
2023-05-01T02:58:43.264Z,14.30
2023-05-01T02:58:55.524Z,14.30
2023-05-01T02:59:07.352Z,14.30
2023-05-01T02:59:19.111Z,14.30
2023-05-01T02:59:31.822Z,14.30
2023-05-01T02:59:43.605Z,14.30
2023-05-01T02:59:55.675Z,14.30
2023-05-01T03:00:09.472Z,14.30
2023-05-01T03:00:21.475Z,14.30
2023-05-01T03:00:33.495Z,14.30
2023-05-01T03:00:45.757Z,14.30
2023-05-01T03:00:57.715Z,14.30
2023-05-01T03:01:09.520Z,14.30
2023-05-01T03:01:21.627Z,14.30
2023-05-01T03:01:33.687Z,14.20
2023-05-01T03:01:45.632Z,14.20
2023-05-01T03:01:57.540Z,14.30
2023-05-01T03:02:09.366Z,14.20
2023-05-01T03:02:21.199Z,14.20
2023-05-01T03:02:33.552Z,14.20
2023-05-01T03:02:45.709Z,14.20
2023-05-01T03:02:58.300Z,14.20
2023-05-01T03:03:10.805Z,14.20
2023-05-01T03:03:22.700Z,14.20
2023-05-01T03:03:34.614Z,14.20
2023-05-01T03:03:46.894Z,14.20
2023-05-01T03:03:58.886Z,14.20
2023-05-01T03:04:10.711Z,14.20
2023-05-01T03:04:22.587Z,14.20
2023-05-01T03:04:34.576Z,14.20
2023-05-01T03:04:46.427Z,14.20
2023-05-01T03:04:58.588Z,14.20
2023-05-01T03:05:10.387Z,14.20
2023-05-01T03:05:22.483Z,14.20
2023-05-01T03:05:34.218Z,14.20
2023-05-01T03:05:46.040Z,14.20
2023-05-01T03:05:58.539Z,14.20
2023-05-01T03:06:10.468Z,14.20
2023-05-01T03:06:22.379Z,14.20
2023-05-01T03:06:34.359Z,14.20
2023-05-01T03:06:46.411Z,14.20
2023-05-01T03:06:58.220Z,14.20
2023-05-01T03:07:09.967Z,14.20
2023-05-01T03:07:21.806Z,14.20
2023-05-01T03:07:36.382Z,14.20
2023-05-01T03:07:48.566Z,14.20
2023-05-01T03:08:00.463Z,14.20
2023-05-01T03:08:12.895Z,14.20
2023-05-01T03:08:24.932Z,14.20
2023-05-01T03:08:36.833Z,14.20
2023-05-01T03:08:48.875Z,14.20
2023-05-01T03:09:01.324Z,14.20
2023-05-01T03:09:13.908Z,14.20
2023-05-01T03:09:25.765Z,14.20
2023-05-01T03:09:38.267Z,14.20